createdAt,value
2023-03-07T00:00:13.415Z,26.30
2023-03-07T00:02:41.490Z,23.73
2023-03-07T00:05:09.880Z,28.67
2023-03-07T00:07:37.512Z,28.88
2023-03-07T00:10:05.654Z,22.15
2023-03-07T00:12:34.606Z,26.30
2023-03-07T00:15:02.250Z,27.40
2023-03-07T00:17:29.825Z,30.55
2023-03-07T00:19:57.502Z,25.23
2023-03-07T00:22:25.097Z,29.67
2023-03-07T00:24:52.665Z,23.67
2023-03-07T00:27:20.287Z,21.70
2023-03-07T00:29:51.049Z,23.20
2023-03-07T00:32:19.328Z,24.35
2023-03-07T00:34:47.152Z,23.50
2023-03-07T00:37:15.291Z,22.85
2023-03-07T00:39:43.104Z,23.48
2023-03-07T00:42:10.856Z,22.42
2023-03-07T00:44:38.483Z,18.65
2023-03-07T00:47:07.888Z,22.65
2023-03-07T00:49:35.661Z,22.27
2023-03-07T00:52:03.602Z,18.70
2023-03-07T00:54:31.258Z,24.42
2023-03-07T00:56:58.864Z,19.55
2023-03-07T00:59:26.476Z,23.98
2023-03-07T01:01:54.083Z,24.73
2023-03-07T01:04:23.136Z,26.90
2023-03-07T01:06:51.027Z,23.40
2023-03-07T01:09:18.580Z,21.00
2023-03-07T01:11:46.179Z,25.02
2023-03-07T01:14:13.770Z,19.02
2023-03-07T01:16:41.531Z,20.15
2023-03-07T01:19:12.447Z,21.98
2023-03-07T01:21:42.877Z,19.65
2023-03-07T01:24:14.074Z,23.50
2023-03-07T01:26:41.838Z,18.60
2023-03-07T01:29:09.815Z,18.40
2023-03-07T01:31:37.673Z,24.70
2023-03-07T01:34:05.726Z,21.25
2023-03-07T01:36:34.806Z,22.73
2023-03-07T01:39:06.666Z,22.58
2023-03-07T01:41:35.134Z,22.02
2023-03-07T01:44:06.267Z,20.88
2023-03-07T01:46:40.061Z,20.37
2023-03-07T01:49:11.247Z,23.60
2023-03-07T01:51:41.573Z,21.30
2023-03-07T01:54:12.331Z,21.60
2023-03-07T01:56:40.493Z,20.08
2023-03-07T01:59:08.332Z,19.50
2023-03-07T02:01:36.413Z,20.15
2023-03-07T02:04:07.550Z,20.33
2023-03-07T02:06:36.703Z,14.50
2023-03-07T02:09:04.726Z,19.75
2023-03-07T02:11:33.778Z,19.75
2023-03-07T02:14:01.456Z,19.08
2023-03-07T02:16:29.126Z,21.63
2023-03-07T02:18:57.060Z,19.88
2023-03-07T02:21:32.868Z,22.67
2023-03-07T02:24:03.624Z,20.90
2023-03-07T02:26:43.928Z,19.75
2023-03-07T02:29:12.002Z,22.88
2023-03-07T02:31:39.738Z,20.88
2023-03-07T02:34:19.529Z,20.58
2023-03-07T02:36:47.822Z,21.55
2023-03-07T02:39:15.590Z,18.23
2023-03-07T02:41:44.637Z,18.92
2023-03-07T02:44:12.613Z,17.48
2023-03-07T02:46:40.341Z,20.13
2023-03-07T02:49:07.929Z,18.90
2023-03-07T02:51:35.525Z,20.35
2023-03-07T02:54:03.325Z,25.30
2023-03-07T02:56:31.093Z,23.73
2023-03-07T02:59:00.103Z,19.15
2023-03-07T03:01:27.874Z,19.83
2023-03-07T03:03:56.085Z,22.67
2023-03-07T03:06:24.275Z,18.92
2023-03-07T03:08:51.938Z,21.08
2023-03-07T03:11:19.564Z,27.48
2023-03-07T03:13:47.640Z,19.02
2023-03-07T03:16:17.212Z,21.42
2023-03-07T03:18:44.964Z,22.17
2023-03-07T03:21:14.463Z,22.60
2023-03-07T03:23:42.085Z,16.73
2023-03-07T03:26:11.579Z,22.13
2023-03-07T03:28:40.104Z,20.40
2023-03-07T03:31:10.336Z,22.55
2023-03-07T03:33:39.826Z,19.67
2023-03-07T03:36:09.383Z,21.40
2023-03-07T03:38:37.048Z,21.73
2023-03-07T03:41:06.603Z,21.77
2023-03-07T03:43:35.081Z,22.75
2023-03-07T03:46:02.888Z,20.85
2023-03-07T03:48:30.922Z,20.85
2023-03-07T03:51:04.969Z,28.13
2023-03-07T03:53:33.144Z,17.30
2023-03-07T03:56:05.945Z,20.98
2023-03-07T03:58:33.980Z,20.17
2023-03-07T04:01:02.659Z,24.70
2023-03-07T04:03:30.304Z,20.17
2023-03-07T04:06:03.581Z,22.77
2023-03-07T04:08:31.395Z,25.33
2023-03-07T04:10:59.150Z,23.02
2023-03-07T04:13:26.880Z,23.17
2023-03-07T04:15:54.910Z,23.27
2023-03-07T04:18:22.872Z,20.33
2023-03-07T04:20:51.314Z,20.33
2023-03-07T04:23:21.022Z,22.20
2023-03-07T04:25:49.279Z,21.77
2023-03-07T04:28:17.141Z,21.40
2023-03-07T04:30:44.866Z,26.67
2023-03-07T04:33:13.385Z,22.77
2023-03-07T04:35:41.011Z,18.75
2023-03-07T04:38:08.667Z,29.48
2023-03-07T04:40:37.635Z,23.77
2023-03-07T04:43:05.805Z,27.42
2023-03-07T04:45:35.100Z,22.08
2023-03-07T04:48:02.973Z,24.58
2023-03-07T04:50:30.717Z,25.05
2023-03-07T04:52:58.321Z,29.10
2023-03-07T04:55:25.956Z,26.52
2023-03-07T04:57:57.626Z,25.95
2023-03-07T05:00:25.702Z,25.38
2023-03-07T05:02:53.308Z,22.35
2023-03-07T05:05:20.921Z,24.60
2023-03-07T05:07:48.796Z,22.65
2023-03-07T05:10:16.802Z,26.70
2023-03-07T05:12:44.422Z,24.48
2023-03-07T05:15:13.500Z,30.90
2023-03-07T05:17:41.127Z,25.52
2023-03-07T05:20:11.676Z,26.75
2023-03-07T05:22:39.326Z,25.48
2023-03-07T05:25:07.980Z,22.23
2023-03-07T05:27:35.646Z,24.85
2023-03-07T05:30:03.616Z,22.02
2023-03-07T05:32:32.821Z,21.08
2023-03-07T05:35:00.559Z,25.52
2023-03-07T05:37:56.904Z,27.90
2023-03-07T05:40:24.702Z,23.15
2023-03-07T05:42:52.452Z,26.30
2023-03-07T05:45:21.172Z,25.08
2023-03-07T05:47:50.264Z,22.30
2023-03-07T05:50:19.069Z,28.30
2023-03-07T05:52:46.765Z,25.42
2023-03-07T05:55:14.408Z,27.45
2023-03-07T05:57:42.128Z,28.08
2023-03-07T06:00:11.489Z,26.55
2023-03-07T06:02:39.163Z,24.10
2023-03-07T06:05:08.921Z,24.40
2023-03-07T06:07:36.573Z,23.48
2023-03-07T06:10:04.407Z,24.58
2023-03-07T06:12:32.090Z,20.58
2023-03-07T06:14:59.830Z,26.23
2023-03-07T06:17:27.499Z,28.20
2023-03-07T06:19:55.293Z,22.98
2023-03-07T06:22:24.431Z,31.10
2023-03-07T06:24:52.216Z,28.35
2023-03-07T06:27:19.891Z,27.92
2023-03-07T06:29:47.632Z,28.00
2023-03-07T06:32:15.429Z,24.27
2023-03-07T06:34:43.035Z,25.38
2023-03-07T06:37:10.704Z,28.88
2023-03-07T06:39:39.919Z,22.27
2023-03-07T06:42:07.716Z,24.13
2023-03-07T06:44:35.324Z,25.95
2023-03-07T06:47:02.981Z,27.35
2023-03-07T06:49:30.582Z,29.67
2023-03-07T06:51:58.490Z,26.00
2023-03-07T06:54:26.192Z,23.17
2023-03-07T06:56:55.203Z,26.75
2023-03-07T06:59:22.845Z,31.92
2023-03-07T07:01:50.570Z,30.05
2023-03-07T07:04:18.296Z,26.02
2023-03-07T07:06:45.961Z,27.98
2023-03-07T07:09:14.556Z,24.23
2023-03-07T07:11:42.218Z,27.45
2023-03-07T07:14:11.179Z,31.95
2023-03-07T07:16:38.973Z,25.70
2023-03-07T07:19:06.596Z,24.77
2023-03-07T07:21:34.206Z,26.70
2023-03-07T07:24:01.863Z,24.02
2023-03-07T07:26:29.589Z,24.90
2023-03-07T07:28:57.188Z,24.67
2023-03-07T07:31:26.280Z,18.38
2023-03-07T07:33:54.035Z,21.65
2023-03-07T07:36:23.636Z,20.88
2023-03-07T07:38:51.307Z,23.33
2023-03-07T07:41:19.232Z,24.15
2023-03-07T07:43:48.353Z,22.75
2023-03-07T07:46:16.137Z,20.20
2023-03-07T07:48:47.622Z,19.60
2023-03-07T07:51:15.330Z,15.85
2023-03-07T07:53:43.017Z,15.68
2023-03-07T07:56:10.727Z,20.80
2023-03-07T07:58:38.416Z,21.55
2023-03-07T08:01:14.450Z,20.50
2023-03-07T08:03:42.174Z,16.65
2023-03-07T08:06:11.408Z,21.05
2023-03-07T08:08:39.479Z,22.60
2023-03-07T08:11:07.183Z,22.67
2023-03-07T08:13:34.832Z,21.65
2023-03-07T08:16:10.049Z,22.05
2023-03-07T08:18:37.813Z,26.67
2023-03-07T08:21:05.917Z,17.00
2023-03-07T08:23:35.025Z,23.50
2023-03-07T08:26:05.844Z,17.85
2023-03-07T08:28:33.996Z,20.03
2023-03-07T08:31:07.859Z,17.23
2023-03-07T08:33:35.529Z,19.15
2023-03-07T08:36:03.551Z,19.38
2023-03-07T08:38:31.240Z,16.75
2023-03-07T08:41:02.616Z,20.23
2023-03-07T08:43:30.350Z,18.88
2023-03-07T08:45:58.303Z,17.30
2023-03-07T08:48:26.372Z,18.65
2023-03-07T08:50:55.246Z,21.17
2023-03-07T08:53:23.261Z,20.67
2023-03-07T08:55:51.039Z,17.77
2023-03-07T08:58:20.012Z,17.15
2023-03-07T09:00:47.666Z,19.85
2023-03-07T09:03:15.306Z,23.67
2023-03-07T09:05:42.977Z,24.08
2023-03-07T09:08:10.590Z,21.60
2023-03-07T09:10:38.361Z,21.63
2023-03-07T09:13:06.117Z,19.15
2023-03-07T09:15:35.152Z,23.95
2023-03-07T09:18:02.809Z,20.20
2023-03-07T09:20:30.503Z,18.13
2023-03-07T09:22:58.369Z,19.92
2023-03-07T09:25:26.192Z,19.35
2023-03-07T09:27:54.245Z,23.30
2023-03-07T09:30:22.733Z,18.50
2023-03-07T09:32:51.945Z,22.27
2023-03-07T09:35:19.796Z,15.93
2023-03-07T09:37:47.416Z,22.00
2023-03-07T09:40:19.471Z,20.13
2023-03-07T09:42:56.589Z,20.10
2023-03-07T09:45:38.860Z,20.23
2023-03-07T09:48:47.199Z,19.05
2023-03-07T09:51:18.033Z,20.80
2023-03-07T09:53:48.185Z,19.02
2023-03-07T09:56:21.237Z,27.80
2023-03-07T09:58:54.739Z,19.23
2023-03-07T10:01:25.433Z,23.80
2023-03-07T10:03:59.021Z,20.92
2023-03-07T10:06:30.525Z,19.58
2023-03-07T10:08:59.288Z,22.55
2023-03-07T10:11:32.667Z,20.92
2023-03-07T10:14:18.931Z,27.88
2023-03-07T10:16:50.738Z,26.92
2023-03-07T10:19:26.700Z,20.70
2023-03-07T10:21:58.982Z,20.48
2023-03-07T10:24:37.572Z,28.30
2023-03-07T10:27:07.913Z,23.50
2023-03-07T10:29:41.261Z,18.80
2023-03-07T10:32:24.278Z,19.95
2023-03-07T10:34:57.019Z,18.35
2023-03-07T10:37:34.731Z,23.40
2023-03-07T10:40:04.977Z,20.55
2023-03-07T10:42:36.823Z,20.02
2023-03-07T10:45:04.977Z,20.67
2023-03-07T10:47:32.662Z,18.48
2023-03-07T10:50:10.580Z,20.83
2023-03-07T10:52:41.329Z,21.02
2023-03-07T10:55:31.832Z,24.08
2023-03-07T10:58:13.762Z,21.35
2023-03-07T11:00:41.714Z,24.48
2023-03-07T11:03:23.843Z,22.27
2023-03-07T11:05:52.957Z,23.77
2023-03-07T11:08:29.380Z,25.50
2023-03-07T11:10:57.027Z,22.23
2023-03-07T11:13:25.648Z,20.70
2023-03-07T11:16:02.837Z,18.90
2023-03-07T11:18:40.240Z,21.65
2023-03-07T11:21:28.056Z,18.98
2023-03-07T11:24:01.040Z,22.50
2023-03-07T11:26:32.475Z,23.33
2023-03-07T11:29:08.604Z,21.58
2023-03-07T11:31:43.948Z,20.25
2023-03-07T11:34:23.869Z,25.63
2023-03-07T11:36:57.175Z,19.17
2023-03-07T11:39:33.854Z,20.75
2023-03-07T11:42:04.670Z,26.48
2023-03-07T11:44:36.068Z,22.58
2023-03-07T11:47:14.431Z,21.00
2023-03-07T11:49:46.971Z,23.83
2023-03-07T11:52:28.062Z,20.42
2023-03-07T11:55:03.540Z,21.90
2023-03-07T11:57:45.594Z,22.00
2023-03-07T12:00:21.597Z,23.92
2023-03-07T12:02:58.053Z,21.55
2023-03-07T12:05:43.461Z,21.25
2023-03-07T12:08:36.194Z,24.35
2023-03-07T12:11:12.906Z,22.48
2023-03-07T12:13:46.718Z,18.95
2023-03-07T12:16:20.647Z,19.98
2023-03-07T12:19:01.089Z,22.10
2023-03-07T12:21:42.176Z,18.65
2023-03-07T12:24:16.854Z,19.08
2023-03-07T12:26:51.335Z,19.63
2023-03-07T12:29:22.844Z,22.88
2023-03-07T12:31:53.164Z,20.92
2023-03-07T12:34:26.816Z,20.50
2023-03-07T12:36:57.245Z,22.27
2023-03-07T12:39:30.631Z,21.25
2023-03-07T12:42:01.348Z,18.52
2023-03-07T12:44:34.789Z,20.85
2023-03-07T12:47:08.381Z,19.15
2023-03-07T12:49:49.408Z,17.85
2023-03-07T12:52:33.189Z,21.05
2023-03-07T12:55:08.737Z,19.63
2023-03-07T12:57:41.284Z,20.92
2023-03-07T13:00:11.690Z,22.30
2023-03-07T13:02:43.231Z,18.48
2023-03-07T13:05:19.484Z,16.73
2023-03-07T13:07:48.188Z,18.25
2023-03-07T13:10:19.880Z,17.50
2023-03-07T13:12:48.036Z,20.70
2023-03-07T13:15:50.617Z,17.77
2023-03-07T13:18:29.888Z,18.95
2023-03-07T13:21:33.645Z,19.50
2023-03-07T13:24:44.039Z,23.67
2023-03-07T13:27:17.136Z,18.70
2023-03-07T13:30:07.223Z,23.50
2023-03-07T13:32:57.856Z,27.15
2023-03-07T13:35:53.685Z,21.88
2023-03-07T13:38:32.413Z,18.30
2023-03-07T13:41:00.655Z,20.42
2023-03-07T13:43:57.878Z,21.05
2023-03-07T13:46:51.644Z,22.73
2023-03-07T13:49:49.513Z,21.83
2023-03-07T13:52:32.745Z,19.95
2023-03-07T13:55:01.853Z,17.85
2023-03-07T13:57:35.833Z,18.85
2023-03-07T14:00:15.408Z,19.48
2023-03-07T14:02:44.061Z,17.83
2023-03-07T14:05:12.371Z,19.27
2023-03-07T14:07:41.305Z,19.40
2023-03-07T14:10:22.511Z,21.10
2023-03-07T14:13:21.458Z,19.42
2023-03-07T14:16:05.031Z,18.95
2023-03-07T14:18:43.304Z,20.60
2023-03-07T14:21:15.233Z,17.60
2023-03-07T14:24:05.180Z,20.80
2023-03-07T14:26:35.009Z,16.70
2023-03-07T14:29:04.782Z,20.45
2023-03-07T14:31:39.296Z,19.15
2023-03-07T14:34:17.510Z,24.25
2023-03-07T14:36:46.255Z,19.05
2023-03-07T14:39:15.122Z,21.30
2023-03-07T14:41:47.494Z,16.77
2023-03-07T14:44:32.312Z,19.65
2023-03-07T14:47:12.876Z,19.48
2023-03-07T14:49:46.208Z,20.40
2023-03-07T14:52:28.274Z,17.90
2023-03-07T14:55:00.984Z,23.38
2023-03-07T14:57:33.258Z,17.52
2023-03-07T15:00:09.832Z,20.42
2023-03-07T15:02:46.626Z,17.70
2023-03-07T15:05:17.034Z,17.90
2023-03-07T15:07:46.348Z,18.80
2023-03-07T15:10:17.502Z,18.83
2023-03-07T15:12:46.920Z,18.98
2023-03-07T15:15:25.160Z,17.73
2023-03-07T15:17:56.257Z,18.02
2023-03-07T15:20:25.598Z,18.33
2023-03-07T15:22:53.789Z,17.67
2023-03-07T15:25:25.710Z,21.50
2023-03-07T15:27:59.871Z,18.27
2023-03-07T15:30:29.542Z,22.15
2023-03-07T15:33:13.507Z,17.50
2023-03-07T15:35:41.332Z,17.25
2023-03-07T15:38:15.964Z,21.27
2023-03-07T15:40:44.157Z,16.63
2023-03-07T15:43:25.604Z,16.83
2023-03-07T15:46:03.081Z,19.63
2023-03-07T15:48:37.310Z,17.83
2023-03-07T15:51:07.157Z,20.75
2023-03-07T15:53:37.835Z,15.57
2023-03-07T15:56:07.954Z,18.77
2023-03-07T15:58:36.704Z,17.15
2023-03-07T16:01:09.157Z,17.77
2023-03-07T16:03:49.402Z,19.20
2023-03-07T16:06:36.438Z,15.73
2023-03-07T16:09:05.349Z,18.40
2023-03-07T16:11:33.456Z,20.55
2023-03-07T16:14:01.246Z,21.65
2023-03-07T16:16:30.517Z,20.65
2023-03-07T16:18:59.667Z,15.85
2023-03-07T16:21:27.615Z,17.75
2023-03-07T16:23:55.292Z,20.17
2023-03-07T16:26:24.456Z,18.65
2023-03-07T16:28:53.101Z,15.98
2023-03-07T16:31:21.520Z,17.40
2023-03-07T16:33:49.416Z,17.50
2023-03-07T16:36:19.005Z,15.88
2023-03-07T16:38:47.589Z,17.83
2023-03-07T16:41:17.262Z,19.00
2023-03-07T16:43:45.522Z,16.80
2023-03-07T16:46:15.443Z,20.83
2023-03-07T16:48:43.252Z,15.70
2023-03-07T16:51:14.039Z,21.38
2023-03-07T16:53:43.154Z,16.20
2023-03-07T16:56:17.087Z,18.42
2023-03-07T16:58:44.774Z,18.55
2023-03-07T17:01:14.384Z,20.85
2023-03-07T17:03:42.118Z,19.58
2023-03-07T17:06:13.886Z,21.42
2023-03-07T17:08:42.905Z,24.67
2023-03-07T17:11:18.025Z,20.02
2023-03-07T17:13:46.397Z,17.70
2023-03-07T17:16:15.216Z,19.05
2023-03-07T17:18:43.091Z,20.88
2023-03-07T17:21:13.977Z,21.00
2023-03-07T17:23:44.995Z,25.08
2023-03-07T17:26:17.621Z,22.45
2023-03-07T17:28:45.426Z,21.63
2023-03-07T17:31:13.491Z,17.58
2023-03-07T17:33:41.139Z,25.08
2023-03-07T17:36:10.589Z,19.48
2023-03-07T17:38:38.337Z,30.77
2023-03-07T17:41:07.599Z,20.60
2023-03-07T17:43:35.286Z,20.05
2023-03-07T17:46:02.985Z,19.33
2023-03-07T17:48:30.655Z,25.73
2023-03-07T17:50:58.309Z,20.15
2023-03-07T17:53:26.012Z,19.60
2023-03-07T17:55:53.653Z,19.98
2023-03-07T17:58:22.694Z,21.40
2023-03-07T18:00:50.327Z,20.20
2023-03-07T18:03:17.980Z,21.60
2023-03-07T18:05:45.649Z,20.23
2023-03-07T18:08:13.309Z,22.35
2023-03-07T18:10:40.928Z,23.67
2023-03-07T18:13:09.822Z,28.20
2023-03-07T18:15:39.221Z,22.40
2023-03-07T18:18:07.036Z,21.67
2023-03-07T18:20:34.713Z,19.45
2023-03-07T18:23:02.345Z,21.33
2023-03-07T18:25:30.170Z,20.48
2023-03-07T18:27:57.878Z,24.13
2023-03-07T18:30:25.736Z,22.40
2023-03-07T18:32:55.448Z,23.65
2023-03-07T18:35:23.487Z,24.42
2023-03-07T18:37:51.109Z,22.95
2023-03-07T18:40:22.007Z,23.50
2023-03-07T18:42:49.643Z,33.63
2023-03-07T18:45:17.398Z,25.70
2023-03-07T18:47:45.149Z,34.53
2023-03-07T18:50:14.197Z,32.80
2023-03-07T18:52:41.789Z,33.50
2023-03-07T18:55:10.376Z,35.90
2023-03-07T18:57:38.007Z,40.20
2023-03-07T19:00:07.095Z,41.20
2023-03-07T19:02:34.796Z,40.42
2023-03-07T19:05:02.426Z,30.92
2023-03-07T19:07:31.956Z,33.58
2023-03-07T19:09:59.619Z,30.02
2023-03-07T19:12:27.360Z,28.30
2023-03-07T19:14:55.103Z,29.00
2023-03-07T19:17:22.743Z,26.15
2023-03-07T19:19:52.904Z,22.88
2023-03-07T19:22:25.853Z,22.15
2023-03-07T19:24:56.073Z,23.88
2023-03-07T19:27:24.206Z,24.80
2023-03-07T19:29:53.319Z,23.20
2023-03-07T19:32:21.028Z,26.92
2023-03-07T19:34:49.669Z,31.13
2023-03-07T19:37:17.393Z,35.10
2023-03-07T19:39:44.992Z,33.90
2023-03-07T19:42:14.033Z,32.75
2023-03-07T19:44:41.741Z,28.02
2023-03-07T19:47:09.374Z,27.08
2023-03-07T19:49:36.973Z,27.88
2023-03-07T19:52:04.894Z,32.90
2023-03-07T19:54:32.866Z,32.40
2023-03-07T19:57:00.585Z,50.08
2023-03-07T19:59:29.624Z,42.55
2023-03-07T20:01:57.288Z,37.63
2023-03-07T20:04:24.954Z,38.75
2023-03-07T20:06:52.579Z,35.78
2023-03-07T20:09:20.256Z,41.65
2023-03-07T20:11:47.842Z,30.25
2023-03-07T20:14:15.511Z,27.98
2023-03-07T20:16:44.500Z,33.33
2023-03-07T20:19:12.137Z,27.33
2023-03-07T20:21:42.366Z,26.67
2023-03-07T20:24:10.212Z,26.85
2023-03-07T20:26:39.109Z,28.92
2023-03-07T20:29:07.881Z,29.40
2023-03-07T20:31:36.421Z,28.00
2023-03-07T20:34:05.615Z,27.40
2023-03-07T20:36:34.656Z,31.42
2023-03-07T20:39:03.631Z,32.90
2023-03-07T20:41:32.578Z,31.10
2023-03-07T20:44:02.314Z,28.30
2023-03-07T20:46:31.184Z,33.83
2023-03-07T20:49:00.235Z,28.88
2023-03-07T20:51:31.415Z,24.15
2023-03-07T20:54:00.308Z,26.97
2023-03-07T20:56:29.674Z,26.55
2023-03-07T20:58:58.121Z,25.88
2023-03-07T21:01:26.955Z,28.58
2023-03-07T21:03:55.134Z,27.13
2023-03-07T21:06:22.963Z,27.83
2023-03-07T21:08:51.945Z,22.73
2023-03-07T21:11:21.626Z,29.95
2023-03-07T21:13:50.515Z,23.33
2023-03-07T21:16:20.411Z,24.55
2023-03-07T21:18:51.071Z,30.77
2023-03-07T21:21:20.346Z,32.08
2023-03-07T21:23:48.429Z,25.35
2023-03-07T21:26:19.214Z,29.23
2023-03-07T21:28:47.399Z,27.50
2023-03-07T21:31:17.933Z,27.33
2023-03-07T21:33:47.291Z,25.45
2023-03-07T21:36:15.889Z,25.35
2023-03-07T21:38:44.836Z,31.55
2023-03-07T21:41:12.664Z,23.35
2023-03-07T21:43:42.314Z,26.48
2023-03-07T21:46:11.672Z,27.73
2023-03-07T21:48:39.583Z,25.60
2023-03-07T21:51:07.882Z,27.40
2023-03-07T21:53:35.825Z,28.15
2023-03-07T21:56:05.888Z,23.90
2023-03-07T21:58:33.942Z,27.48
2023-03-07T22:01:10.319Z,26.55
2023-03-07T22:03:59.962Z,27.70
2023-03-07T22:06:28.809Z,28.23
2023-03-07T22:08:56.548Z,24.98
2023-03-07T22:11:24.187Z,26.08
2023-03-07T22:13:51.862Z,25.60
2023-03-07T22:16:21.635Z,30.33
2023-03-07T22:18:53.566Z,27.92
2023-03-07T22:21:21.443Z,25.85
2023-03-07T22:23:49.086Z,32.40
2023-03-07T22:26:16.689Z,28.83
2023-03-07T22:28:44.317Z,32.42
2023-03-07T22:31:13.315Z,26.88
2023-03-07T22:33:42.594Z,29.10
2023-03-07T22:36:13.081Z,23.75
2023-03-07T22:38:41.641Z,26.92
2023-03-07T22:41:12.333Z,27.50
2023-03-07T22:43:40.291Z,25.60
2023-03-07T22:46:08.552Z,30.23
2023-03-07T22:48:36.639Z,21.23
2023-03-07T22:51:06.025Z,26.38
2023-03-07T22:53:35.490Z,28.50
2023-03-07T22:56:03.185Z,30.40
2023-03-07T22:58:30.872Z,22.08
2023-03-07T23:00:58.615Z,26.17
2023-03-07T23:03:26.662Z,24.15
2023-03-07T23:05:54.300Z,29.15
2023-03-07T23:08:23.260Z,20.83
2023-03-07T23:10:50.907Z,33.42
2023-03-07T23:13:18.536Z,26.80
2023-03-07T23:15:46.185Z,27.60
2023-03-07T23:18:13.842Z,24.23
2023-03-07T23:20:41.443Z,25.45
2023-03-07T23:23:09.422Z,24.67
2023-03-07T23:25:42.261Z,25.38
2023-03-07T23:28:10.230Z,21.73
2023-03-07T23:30:38.411Z,25.45
2023-03-07T23:33:06.482Z,24.95
2023-03-07T23:35:34.449Z,21.20
2023-03-07T23:38:02.288Z,24.77
2023-03-07T23:40:30.072Z,23.13
2023-03-07T23:42:59.359Z,25.40
2023-03-07T23:45:27.100Z,18.83
2023-03-07T23:47:54.758Z,22.98
2023-03-07T23:50:22.605Z,23.85
2023-03-07T23:52:50.284Z,19.92
2023-03-07T23:55:18.034Z,24.58
2023-03-07T23:57:47.721Z,27.85
